sensor_id;sensor_type;location;lat;lon;timestamp;P1;durP1;ratioP1;P2;durP2;ratioP2
12302;SDS011;6214;48.012;7.862;2023-02-28T00:00:38;16.55;;;3.65;;
12302;SDS011;6214;48.012;7.862;2023-02-28T00:03:05;16.08;;;3.00;;
12302;SDS011;6214;48.012;7.862;2023-02-28T00:05:32;16.33;;;3.85;;
12302;SDS011;6214;48.012;7.862;2023-02-28T00:07:59;17.52;;;4.78;;
12302;SDS011;6214;48.012;7.862;2023-02-28T00:10:27;17.75;;;4.03;;
12302;SDS011;6214;48.012;7.862;2023-02-28T00:12:59;15.80;;;3.67;;
12302;SDS011;6214;48.012;7.862;2023-02-28T00:15:28;16.73;;;4.20;;
12302;SDS011;6214;48.012;7.862;2023-02-28T00:17:55;18.90;;;4.85;;
12302;SDS011;6214;48.012;7.862;2023-02-28T00:20:22;16.50;;;4.05;;
12302;SDS011;6214;48.012;7.862;2023-02-28T00:22:49;16.77;;;3.80;;
12302;SDS011;6214;48.012;7.862;2023-02-28T00:25:19;16.00;;;3.38;;
12302;SDS011;6214;48.012;7.862;2023-02-28T00:27:48;17.52;;;4.32;;
12302;SDS011;6214;48.012;7.862;2023-02-28T00:32:48;17.38;;;4.30;;
12302;SDS011;6214;48.012;7.862;2023-02-28T00:35:16;16.30;;;3.60;;
12302;SDS011;6214;48.012;7.862;2023-02-28T00:37:43;16.27;;;3.70;;
12302;SDS011;6214;48.012;7.862;2023-02-28T00:40:10;17.17;;;3.70;;
12302;SDS011;6214;48.012;7.862;2023-02-28T00:42:38;17.60;;;4.25;;
12302;SDS011;6214;48.012;7.862;2023-02-28T00:45:06;17.13;;;4.00;;
12302;SDS011;6214;48.012;7.862;2023-02-28T00:47:34;16.63;;;3.57;;
12302;SDS011;6214;48.012;7.862;2023-02-28T00:50:02;16.23;;;3.33;;
12302;SDS011;6214;48.012;7.862;2023-02-28T00:52:29;16.98;;;4.00;;
12302;SDS011;6214;48.012;7.862;2023-02-28T00:54:56;16.35;;;3.72;;
12302;SDS011;6214;48.012;7.862;2023-02-28T00:57:23;15.90;;;3.30;;
12302;SDS011;6214;48.012;7.862;2023-02-28T00:59:50;15.98;;;3.60;;
12302;SDS011;6214;48.012;7.862;2023-02-28T01:02:16;16.00;;;3.38;;
12302;SDS011;6214;48.012;7.862;2023-02-28T01:04:44;16.30;;;3.70;;
12302;SDS011;6214;48.012;7.862;2023-02-28T01:07:11;15.85;;;3.30;;
12302;SDS011;6214;48.012;7.862;2023-02-28T01:09:38;16.30;;;3.30;;
12302;SDS011;6214;48.012;7.862;2023-02-28T01:12:05;16.30;;;3.30;;
12302;SDS011;6214;48.012;7.862;2023-02-28T01:14:33;15.57;;;2.80;;
12302;SDS011;6214;48.012;7.862;2023-02-28T01:17:01;16.52;;;3.80;;
12302;SDS011;6214;48.012;7.862;2023-02-28T01:19:28;15.70;;;3.40;;
12302;SDS011;6214;48.012;7.862;2023-02-28T01:21:55;16.50;;;3.70;;
12302;SDS011;6214;48.012;7.862;2023-02-28T01:24:22;15.67;;;3.40;;
12302;SDS011;6214;48.012;7.862;2023-02-28T01:26:48;15.70;;;3.50;;
12302;SDS011;6214;48.012;7.862;2023-02-28T01:29:15;16.00;;;3.60;;
12302;SDS011;6214;48.012;7.862;2023-02-28T01:31:42;15.80;;;3.40;;
12302;SDS011;6214;48.012;7.862;2023-02-28T01:34:09;16.63;;;3.50;;
12302;SDS011;6214;48.012;7.862;2023-02-28T01:36:36;16.40;;;3.90;;
12302;SDS011;6214;48.012;7.862;2023-02-28T01:39:03;15.82;;;3.40;;
12302;SDS011;6214;48.012;7.862;2023-02-28T01:41:31;16.58;;;3.78;;
12302;SDS011;6214;48.012;7.862;2023-02-28T01:46:34;16.08;;;3.58;;
12302;SDS011;6214;48.012;7.862;2023-02-28T01:51:43;16.05;;;3.50;;
12302;SDS011;6214;48.012;7.862;2023-02-28T01:54:18;16.30;;;3.50;;
12302;SDS011;6214;48.012;7.862;2023-02-28T01:56:53;16.80;;;3.40;;
12302;SDS011;6214;48.012;7.862;2023-02-28T01:59:32;16.15;;;3.50;;
12302;SDS011;6214;48.012;7.862;2023-02-28T02:02:03;16.50;;;3.70;;
12302;SDS011;6214;48.012;7.862;2023-02-28T02:04:35;15.65;;;3.47;;
12302;SDS011;6214;48.012;7.862;2023-02-28T02:07:08;16.77;;;3.40;;
12302;SDS011;6214;48.012;7.862;2023-02-28T02:09:36;16.50;;;3.38;;
12302;SDS011;6214;48.012;7.862;2023-02-28T02:12:12;15.82;;;3.40;;
12302;SDS011;6214;48.012;7.862;2023-02-28T02:15:07;16.00;;;3.40;;
12302;SDS011;6214;48.012;7.862;2023-02-28T02:17:43;16.10;;;3.20;;
12302;SDS011;6214;48.012;7.862;2023-02-28T02:37:15;16.15;;;3.30;;
12302;SDS011;6214;48.012;7.862;2023-02-28T02:39:53;15.70;;;3.00;;
12302;SDS011;6214;48.012;7.862;2023-02-28T02:42:33;15.80;;;3.40;;
12302;SDS011;6214;48.012;7.862;2023-02-28T02:45:21;16.52;;;3.45;;
12302;SDS011;6214;48.012;7.862;2023-02-28T02:47:52;17.48;;;3.90;;
12302;SDS011;6214;48.012;7.862;2023-02-28T02:50:26;15.40;;;3.30;;
12302;SDS011;6214;48.012;7.862;2023-02-28T02:52:58;16.80;;;3.40;;
12302;SDS011;6214;48.012;7.862;2023-02-28T02:55:28;16.33;;;3.80;;
12302;SDS011;6214;48.012;7.862;2023-02-28T02:58:01;17.00;;;3.80;;
12302;SDS011;6214;48.012;7.862;2023-02-28T03:00:33;16.63;;;3.70;;
12302;SDS011;6214;48.012;7.862;2023-02-28T03:03:03;16.05;;;3.00;;
12302;SDS011;6214;48.012;7.862;2023-02-28T03:05:41;15.93;;;3.40;;
12302;SDS011;6214;48.012;7.862;2023-02-28T03:08:13;15.80;;;3.25;;
12302;SDS011;6214;48.012;7.862;2023-02-28T03:10:45;15.90;;;3.13;;
12302;SDS011;6214;48.012;7.862;2023-02-28T03:19:03;16.48;;;3.25;;
12302;SDS011;6214;48.012;7.862;2023-02-28T03:27:45;15.70;;;3.13;;
12302;SDS011;6214;48.012;7.862;2023-02-28T03:30:07;15.82;;;3.40;;
12302;SDS011;6214;48.012;7.862;2023-02-28T03:33:02;17.10;;;3.83;;
12302;SDS011;6214;48.012;7.862;2023-02-28T03:35:40;16.30;;;3.37;;
12302;SDS011;6214;48.012;7.862;2023-02-28T03:38:57;15.80;;;3.30;;
12302;SDS011;6214;48.012;7.862;2023-02-28T03:41:12;16.20;;;3.40;;
12302;SDS011;6214;48.012;7.862;2023-02-28T03:44:24;15.52;;;2.85;;
12302;SDS011;6214;48.012;7.862;2023-02-28T03:47:21;15.80;;;3.20;;
12302;SDS011;6214;48.012;7.862;2023-02-28T03:49:57;15.70;;;3.17;;
12302;SDS011;6214;48.012;7.862;2023-02-28T03:52:27;15.23;;;2.90;;
12302;SDS011;6214;48.012;7.862;2023-02-28T03:54:59;15.70;;;3.22;;
12302;SDS011;6214;48.012;7.862;2023-02-28T03:57:51;16.08;;;3.00;;
12302;SDS011;6214;48.012;7.862;2023-02-28T04:00:29;16.10;;;3.40;;
12302;SDS011;6214;48.012;7.862;2023-02-28T04:03:00;18.50;;;3.30;;
12302;SDS011;6214;48.012;7.862;2023-02-28T04:05:28;15.70;;;3.30;;
12302;SDS011;6214;48.012;7.862;2023-02-28T04:08:06;16.33;;;3.50;;
12302;SDS011;6214;48.012;7.862;2023-02-28T04:10:34;15.90;;;3.58;;
12302;SDS011;6214;48.012;7.862;2023-02-28T04:13:01;16.70;;;3.40;;
12302;SDS011;6214;48.012;7.862;2023-02-28T04:15:28;16.30;;;3.40;;
12302;SDS011;6214;48.012;7.862;2023-02-28T04:17:55;16.10;;;3.25;;
12302;SDS011;6214;48.012;7.862;2023-02-28T04:20:21;15.80;;;3.40;;
12302;SDS011;6214;48.012;7.862;2023-02-28T04:22:48;15.85;;;3.60;;
12302;SDS011;6214;48.012;7.862;2023-02-28T04:25:15;16.02;;;3.80;;
12302;SDS011;6214;48.012;7.862;2023-02-28T04:27:42;16.60;;;3.47;;
12302;SDS011;6214;48.012;7.862;2023-02-28T04:30:11;15.90;;;3.40;;
12302;SDS011;6214;48.012;7.862;2023-02-28T04:32:38;16.27;;;3.60;;
12302;SDS011;6214;48.012;7.862;2023-02-28T04:35:05;16.00;;;3.33;;
12302;SDS011;6214;48.012;7.862;2023-02-28T04:37:33;16.00;;;3.80;;
12302;SDS011;6214;48.012;7.862;2023-02-28T04:40:01;15.52;;;3.30;;
12302;SDS011;6214;48.012;7.862;2023-02-28T04:42:29;16.08;;;3.50;;
12302;SDS011;6214;48.012;7.862;2023-02-28T04:45:02;16.00;;;3.58;;
12302;SDS011;6214;48.012;7.862;2023-02-28T04:47:30;15.70;;;3.50;;
12302;SDS011;6214;48.012;7.862;2023-02-28T04:49:57;16.17;;;3.67;;
12302;SDS011;6214;48.012;7.862;2023-02-28T04:52:24;16.13;;;3.77;;
12302;SDS011;6214;48.012;7.862;2023-02-28T04:54:51;17.02;;;3.80;;
12302;SDS011;6214;48.012;7.862;2023-02-28T04:57:18;17.67;;;4.00;;
12302;SDS011;6214;48.012;7.862;2023-02-28T04:59:45;17.00;;;3.60;;
12302;SDS011;6214;48.012;7.862;2023-02-28T05:02:12;17.15;;;3.72;;
12302;SDS011;6214;48.012;7.862;2023-02-28T05:04:39;16.60;;;3.90;;
12302;SDS011;6214;48.012;7.862;2023-02-28T05:07:06;16.60;;;3.97;;
12302;SDS011;6214;48.012;7.862;2023-02-28T05:09:32;17.13;;;4.00;;
12302;SDS011;6214;48.012;7.862;2023-02-28T05:11:59;17.63;;;3.85;;
12302;SDS011;6214;48.012;7.862;2023-02-28T05:14:27;16.40;;;3.60;;
12302;SDS011;6214;48.012;7.862;2023-02-28T05:16:54;17.15;;;4.65;;
12302;SDS011;6214;48.012;7.862;2023-02-28T05:19:21;16.50;;;3.60;;
12302;SDS011;6214;48.012;7.862;2023-02-28T05:21:49;16.60;;;4.07;;
12302;SDS011;6214;48.012;7.862;2023-02-28T05:24:18;16.60;;;4.00;;
12302;SDS011;6214;48.012;7.862;2023-02-28T05:26:49;17.25;;;4.22;;
12302;SDS011;6214;48.012;7.862;2023-02-28T05:29:18;17.17;;;4.50;;
12302;SDS011;6214;48.012;7.862;2023-02-28T05:31:45;16.20;;;3.83;;
12302;SDS011;6214;48.012;7.862;2023-02-28T05:34:13;16.73;;;4.22;;
12302;SDS011;6214;48.012;7.862;2023-02-28T05:36:41;16.27;;;3.90;;
12302;SDS011;6214;48.012;7.862;2023-02-28T05:39:09;17.15;;;4.35;;
12302;SDS011;6214;48.012;7.862;2023-02-28T05:41:40;17.52;;;4.70;;
12302;SDS011;6214;48.012;7.862;2023-02-28T05:44:07;17.08;;;4.30;;
12302;SDS011;6214;48.012;7.862;2023-02-28T05:46:35;16.75;;;3.90;;
12302;SDS011;6214;48.012;7.862;2023-02-28T05:49:02;18.45;;;4.30;;
12302;SDS011;6214;48.012;7.862;2023-02-28T05:51:29;18.02;;;4.70;;
12302;SDS011;6214;48.012;7.862;2023-02-28T05:54:00;17.30;;;4.60;;
12302;SDS011;6214;48.012;7.862;2023-02-28T05:56:27;17.42;;;4.45;;
12302;SDS011;6214;48.012;7.862;2023-02-28T05:58:55;17.23;;;3.90;;
12302;SDS011;6214;48.012;7.862;2023-02-28T06:04:01;16.88;;;4.00;;
12302;SDS011;6214;48.012;7.862;2023-02-28T06:06:29;16.60;;;4.07;;
12302;SDS011;6214;48.012;7.862;2023-02-28T06:08:57;17.40;;;5.03;;
12302;SDS011;6214;48.012;7.862;2023-02-28T06:11:24;16.90;;;4.40;;
12302;SDS011;6214;48.012;7.862;2023-02-28T06:13:54;17.40;;;5.05;;
12302;SDS011;6214;48.012;7.862;2023-02-28T06:16:23;17.30;;;4.90;;
12302;SDS011;6214;48.012;7.862;2023-02-28T06:18:52;17.35;;;4.78;;
12302;SDS011;6214;48.012;7.862;2023-02-28T06:21:22;17.35;;;4.88;;
12302;SDS011;6214;48.012;7.862;2023-02-28T06:23:49;17.70;;;4.10;;
12302;SDS011;6214;48.012;7.862;2023-02-28T06:26:17;16.80;;;4.68;;
12302;SDS011;6214;48.012;7.862;2023-02-28T06:28:43;17.13;;;4.70;;
12302;SDS011;6214;48.012;7.862;2023-02-28T06:31:11;17.15;;;4.35;;
12302;SDS011;6214;48.012;7.862;2023-02-28T06:33:41;17.80;;;4.70;;
12302;SDS011;6214;48.012;7.862;2023-02-28T06:36:09;17.50;;;4.93;;
12302;SDS011;6214;48.012;7.862;2023-02-28T06:38:38;17.10;;;4.80;;
12302;SDS011;6214;48.012;7.862;2023-02-28T06:41:05;17.90;;;4.90;;
12302;SDS011;6214;48.012;7.862;2023-02-28T06:43:34;18.70;;;5.32;;
12302;SDS011;6214;48.012;7.862;2023-02-28T06:46:06;16.98;;;4.95;;
12302;SDS011;6214;48.012;7.862;2023-02-28T06:48:34;17.98;;;5.07;;
12302;SDS011;6214;48.012;7.862;2023-02-28T06:51:05;17.70;;;5.10;;
12302;SDS011;6214;48.012;7.862;2023-02-28T06:53:34;16.90;;;4.45;;
12302;SDS011;6214;48.012;7.862;2023-02-28T06:56:05;17.35;;;4.90;;
12302;SDS011;6214;48.012;7.862;2023-02-28T06:58:34;17.25;;;4.70;;
12302;SDS011;6214;48.012;7.862;2023-02-28T07:01:01;18.00;;;4.60;;
12302;SDS011;6214;48.012;7.862;2023-02-28T07:03:29;18.43;;;5.60;;
12302;SDS011;6214;48.012;7.862;2023-02-28T07:05:59;17.90;;;4.15;;
12302;SDS011;6214;48.012;7.862;2023-02-28T07:08:27;18.08;;;5.00;;
12302;SDS011;6214;48.012;7.862;2023-02-28T07:10:54;17.90;;;5.17;;
12302;SDS011;6214;48.012;7.862;2023-02-28T07:13:22;17.92;;;5.25;;
12302;SDS011;6214;48.012;7.862;2023-02-28T07:15:53;18.17;;;5.18;;
12302;SDS011;6214;48.012;7.862;2023-02-28T07:18:21;18.30;;;5.03;;
12302;SDS011;6214;48.012;7.862;2023-02-28T07:20:48;17.45;;;5.10;;
12302;SDS011;6214;48.012;7.862;2023-02-28T07:23:16;17.25;;;4.32;;
12302;SDS011;6214;48.012;7.862;2023-02-28T07:25:43;17.98;;;4.85;;
12302;SDS011;6214;48.012;7.862;2023-02-28T07:28:12;17.98;;;4.63;;
12302;SDS011;6214;48.012;7.862;2023-02-28T07:30:40;18.00;;;5.43;;
12302;SDS011;6214;48.012;7.862;2023-02-28T07:33:09;17.80;;;5.40;;
12302;SDS011;6214;48.012;7.862;2023-02-28T07:35:37;18.20;;;5.40;;
12302;SDS011;6214;48.012;7.862;2023-02-28T07:38:04;18.40;;;5.97;;
12302;SDS011;6214;48.012;7.862;2023-02-28T07:40:31;18.83;;;6.13;;
12302;SDS011;6214;48.012;7.862;2023-02-28T07:42:58;19.17;;;5.80;;
12302;SDS011;6214;48.012;7.862;2023-02-28T07:45:27;18.02;;;5.60;;
12302;SDS011;6214;48.012;7.862;2023-02-28T07:47:58;17.80;;;4.90;;
12302;SDS011;6214;48.012;7.862;2023-02-28T07:50:25;16.88;;;3.97;;
12302;SDS011;6214;48.012;7.862;2023-02-28T07:52:52;18.33;;;4.70;;
12302;SDS011;6214;48.012;7.862;2023-02-28T07:55:19;17.30;;;4.40;;
12302;SDS011;6214;48.012;7.862;2023-02-28T07:57:46;17.63;;;4.10;;
12302;SDS011;6214;48.012;7.862;2023-02-28T08:00:13;17.45;;;5.22;;
12302;SDS011;6214;48.012;7.862;2023-02-28T08:02:40;18.13;;;5.00;;
12302;SDS011;6214;48.012;7.862;2023-02-28T08:05:07;17.40;;;4.80;;
12302;SDS011;6214;48.012;7.862;2023-02-28T08:07:35;17.58;;;5.20;;
12302;SDS011;6214;48.012;7.862;2023-02-28T08:10:02;17.60;;;5.20;;
12302;SDS011;6214;48.012;7.862;2023-02-28T08:12:31;17.90;;;4.95;;
12302;SDS011;6214;48.012;7.862;2023-02-28T08:14:59;17.50;;;5.10;;
12302;SDS011;6214;48.012;7.862;2023-02-28T08:17:25;18.75;;;4.75;;
12302;SDS011;6214;48.012;7.862;2023-02-28T08:19:53;17.77;;;5.20;;
12302;SDS011;6214;48.012;7.862;2023-02-28T08:22:20;18.23;;;5.40;;
12302;SDS011;6214;48.012;7.862;2023-02-28T08:24:47;17.00;;;4.10;;
12302;SDS011;6214;48.012;7.862;2023-02-28T08:27:14;17.70;;;4.95;;
12302;SDS011;6214;48.012;7.862;2023-02-28T08:29:41;17.67;;;5.20;;
12302;SDS011;6214;48.012;7.862;2023-02-28T08:32:08;18.08;;;5.20;;
12302;SDS011;6214;48.012;7.862;2023-02-28T08:34:54;18.08;;;5.38;;
12302;SDS011;6214;48.012;7.862;2023-02-28T08:37:20;18.98;;;5.70;;
12302;SDS011;6214;48.012;7.862;2023-02-28T08:39:47;18.10;;;5.30;;
12302;SDS011;6214;48.012;7.862;2023-02-28T08:42:14;18.45;;;5.72;;
12302;SDS011;6214;48.012;7.862;2023-02-28T08:44:41;19.30;;;5.70;;
12302;SDS011;6214;48.012;7.862;2023-02-28T08:47:08;18.42;;;5.00;;
12302;SDS011;6214;48.012;7.862;2023-02-28T08:49:36;17.77;;;4.80;;
12302;SDS011;6214;48.012;7.862;2023-02-28T08:52:03;18.55;;;5.80;;
12302;SDS011;6214;48.012;7.862;2023-02-28T08:54:30;18.77;;;5.90;;
12302;SDS011;6214;48.012;7.862;2023-02-28T08:56:59;19.23;;;6.18;;
12302;SDS011;6214;48.012;7.862;2023-02-28T08:59:26;18.50;;;6.23;;
12302;SDS011;6214;48.012;7.862;2023-02-28T09:01:53;18.40;;;5.72;;
12302;SDS011;6214;48.012;7.862;2023-02-28T09:04:20;17.15;;;5.30;;
12302;SDS011;6214;48.012;7.862;2023-02-28T09:06:50;18.45;;;6.00;;
12302;SDS011;6214;48.012;7.862;2023-02-28T09:09:17;18.90;;;5.63;;
12302;SDS011;6214;48.012;7.862;2023-02-28T09:11:44;18.65;;;6.07;;
12302;SDS011;6214;48.012;7.862;2023-02-28T09:14:11;18.50;;;6.15;;
12302;SDS011;6214;48.012;7.862;2023-02-28T09:16:38;18.25;;;6.20;;
12302;SDS011;6214;48.012;7.862;2023-02-28T09:19:05;17.38;;;5.75;;
12302;SDS011;6214;48.012;7.862;2023-02-28T09:21:32;18.70;;;6.10;;
12302;SDS011;6214;48.012;7.862;2023-02-28T09:23:59;18.10;;;5.90;;
12302;SDS011;6214;48.012;7.862;2023-02-28T09:26:26;17.58;;;6.10;;
12302;SDS011;6214;48.012;7.862;2023-02-28T09:29:08;18.30;;;5.90;;
12302;SDS011;6214;48.012;7.862;2023-02-28T09:31:35;18.13;;;5.70;;
12302;SDS011;6214;48.012;7.862;2023-02-28T09:34:03;17.70;;;5.93;;
12302;SDS011;6214;48.012;7.862;2023-02-28T09:36:31;17.65;;;6.00;;
12302;SDS011;6214;48.012;7.862;2023-02-28T09:39:09;17.52;;;5.68;;
12302;SDS011;6214;48.012;7.862;2023-02-28T09:41:39;17.63;;;5.88;;
12302;SDS011;6214;48.012;7.862;2023-02-28T09:44:18;17.55;;;6.10;;
12302;SDS011;6214;48.012;7.862;2023-02-28T09:47:00;17.20;;;5.87;;
12302;SDS011;6214;48.012;7.862;2023-02-28T09:49:51;17.92;;;6.25;;
12302;SDS011;6214;48.012;7.862;2023-02-28T09:52:20;17.20;;;5.85;;
12302;SDS011;6214;48.012;7.862;2023-02-28T09:54:54;17.52;;;6.13;;
12302;SDS011;6214;48.012;7.862;2023-02-28T09:57:38;17.50;;;5.50;;
12302;SDS011;6214;48.012;7.862;2023-02-28T10:00:15;16.90;;;5.33;;
12302;SDS011;6214;48.012;7.862;2023-02-28T10:08:47;18.73;;;6.40;;
12302;SDS011;6214;48.012;7.862;2023-02-28T10:11:23;17.90;;;5.93;;
12302;SDS011;6214;48.012;7.862;2023-02-28T10:16:29;18.10;;;6.72;;
12302;SDS011;6214;48.012;7.862;2023-02-28T10:21:30;18.30;;;6.65;;
12302;SDS011;6214;48.012;7.862;2023-02-28T10:24:04;17.80;;;6.28;;
12302;SDS011;6214;48.012;7.862;2023-02-28T10:26:41;18.20;;;5.63;;
12302;SDS011;6214;48.012;7.862;2023-02-28T10:29:11;17.60;;;6.85;;
12302;SDS011;6214;48.012;7.862;2023-02-28T10:31:38;17.85;;;6.10;;
12302;SDS011;6214;48.012;7.862;2023-02-28T10:34:07;18.50;;;6.38;;
12302;SDS011;6214;48.012;7.862;2023-02-28T10:36:38;18.52;;;7.22;;
12302;SDS011;6214;48.012;7.862;2023-02-28T10:42:00;17.40;;;6.50;;
12302;SDS011;6214;48.012;7.862;2023-02-28T10:44:27;18.20;;;6.00;;
12302;SDS011;6214;48.012;7.862;2023-02-28T10:46:54;17.35;;;6.40;;
12302;SDS011;6214;48.012;7.862;2023-02-28T10:49:23;18.30;;;6.50;;
12302;SDS011;6214;48.012;7.862;2023-02-28T10:51:56;17.88;;;6.60;;
12302;SDS011;6214;48.012;7.862;2023-02-28T10:54:29;18.15;;;6.70;;
12302;SDS011;6214;48.012;7.862;2023-02-28T10:57:20;17.63;;;6.70;;
12302;SDS011;6214;48.012;7.862;2023-02-28T10:59:51;18.75;;;6.90;;
12302;SDS011;6214;48.012;7.862;2023-02-28T11:02:31;18.65;;;6.75;;
12302;SDS011;6214;48.012;7.862;2023-02-28T11:05:01;17.15;;;6.07;;
12302;SDS011;6214;48.012;7.862;2023-02-28T11:07:29;17.40;;;6.20;;
12302;SDS011;6214;48.012;7.862;2023-02-28T11:10:18;17.42;;;5.95;;
12302;SDS011;6214;48.012;7.862;2023-02-28T11:12:47;18.73;;;6.70;;
12302;SDS011;6214;48.012;7.862;2023-02-28T11:15:23;17.70;;;6.50;;
12302;SDS011;6214;48.012;7.862;2023-02-28T11:20:29;17.40;;;6.05;;
12302;SDS011;6214;48.012;7.862;2023-02-28T11:22:59;18.10;;;6.20;;
12302;SDS011;6214;48.012;7.862;2023-02-28T11:25:30;18.00;;;6.82;;
12302;SDS011;6214;48.012;7.862;2023-02-28T11:28:03;18.00;;;6.90;;
12302;SDS011;6214;48.012;7.862;2023-02-28T11:30:41;17.83;;;6.60;;
12302;SDS011;6214;48.012;7.862;2023-02-28T11:36:02;17.63;;;6.57;;
12302;SDS011;6214;48.012;7.862;2023-02-28T11:38:35;18.30;;;7.28;;
12302;SDS011;6214;48.012;7.862;2023-02-28T11:46:30;18.35;;;6.80;;
12302;SDS011;6214;48.012;7.862;2023-02-28T11:49:14;17.85;;;6.38;;
12302;SDS011;6214;48.012;7.862;2023-02-28T11:54:29;17.48;;;6.55;;
12302;SDS011;6214;48.012;7.862;2023-02-28T12:05:31;17.60;;;6.50;;
12302;SDS011;6214;48.012;7.862;2023-02-28T12:10:51;18.70;;;6.60;;
12302;SDS011;6214;48.012;7.862;2023-02-28T12:24:42;17.80;;;6.43;;
12302;SDS011;6214;48.012;7.862;2023-02-28T12:27:15;18.00;;;6.40;;
12302;SDS011;6214;48.012;7.862;2023-02-28T12:37:37;17.63;;;6.33;;
12302;SDS011;6214;48.012;7.862;2023-02-28T12:40:09;18.75;;;6.30;;
12302;SDS011;6214;48.012;7.862;2023-02-28T12:42:52;18.55;;;7.05;;
12302;SDS011;6214;48.012;7.862;2023-02-28T12:45:29;18.17;;;7.05;;
12302;SDS011;6214;48.012;7.862;2023-02-28T12:48:03;18.00;;;6.93;;
12302;SDS011;6214;48.012;7.862;2023-02-28T12:50:34;18.58;;;7.00;;
12302;SDS011;6214;48.012;7.862;2023-02-28T12:53:40;18.15;;;7.45;;
12302;SDS011;6214;48.012;7.862;2023-02-28T12:58:43;18.30;;;6.90;;
12302;SDS011;6214;48.012;7.862;2023-02-28T13:07:13;19.65;;;7.70;;
12302;SDS011;6214;48.012;7.862;2023-02-28T13:09:52;19.15;;;7.60;;
12302;SDS011;6214;48.012;7.862;2023-02-28T13:12:21;18.75;;;7.80;;
12302;SDS011;6214;48.012;7.862;2023-02-28T13:14:49;18.55;;;7.00;;
12302;SDS011;6214;48.012;7.862;2023-02-28T13:17:18;18.98;;;7.95;;
12302;SDS011;6214;48.012;7.862;2023-02-28T13:27:53;18.38;;;7.03;;
12302;SDS011;6214;48.012;7.862;2023-02-28T13:36:21;18.70;;;7.50;;
12302;SDS011;6214;48.012;7.862;2023-02-28T13:41:39;18.90;;;7.78;;
12302;SDS011;6214;48.012;7.862;2023-02-28T13:44:08;18.40;;;7.60;;
12302;SDS011;6214;48.012;7.862;2023-02-28T13:51:49;19.87;;;8.43;;
12302;SDS011;6214;48.012;7.862;2023-02-28T14:00:05;19.00;;;7.60;;
12302;SDS011;6214;48.012;7.862;2023-02-28T14:05:40;18.58;;;7.22;;
12302;SDS011;6214;48.012;7.862;2023-02-28T14:10:44;18.73;;;7.80;;
12302;SDS011;6214;48.012;7.862;2023-02-28T14:13:55;18.70;;;7.40;;
12302;SDS011;6214;48.012;7.862;2023-02-28T14:16:12;19.48;;;7.43;;
12302;SDS011;6214;48.012;7.862;2023-02-28T14:18:42;19.23;;;8.40;;
12302;SDS011;6214;48.012;7.862;2023-02-28T14:21:25;19.33;;;8.73;;
12302;SDS011;6214;48.012;7.862;2023-02-28T14:24:03;18.50;;;7.00;;
12302;SDS011;6214;48.012;7.862;2023-02-28T14:26:55;18.90;;;7.80;;
12302;SDS011;6214;48.012;7.862;2023-02-28T14:37:47;18.48;;;7.35;;
12302;SDS011;6214;48.012;7.862;2023-02-28T14:40:17;19.25;;;8.40;;
12302;SDS011;6214;48.012;7.862;2023-02-28T14:43:18;19.80;;;8.90;;
12302;SDS011;6214;48.012;7.862;2023-02-28T14:45:51;19.73;;;8.48;;
12302;SDS011;6214;48.012;7.862;2023-02-28T14:48:21;20.63;;;8.45;;
12302;SDS011;6214;48.012;7.862;2023-02-28T14:50:52;19.98;;;8.63;;
12302;SDS011;6214;48.012;7.862;2023-02-28T14:53:23;20.02;;;8.88;;
12302;SDS011;6214;48.012;7.862;2023-02-28T14:55:53;20.35;;;8.50;;
12302;SDS011;6214;48.012;7.862;2023-02-28T14:58:31;20.23;;;8.00;;
12302;SDS011;6214;48.012;7.862;2023-02-28T15:00:59;19.75;;;8.82;;
12302;SDS011;6214;48.012;7.862;2023-02-28T15:06:03;20.00;;;8.90;;
12302;SDS011;6214;48.012;7.862;2023-02-28T15:08:33;20.97;;;9.67;;
12302;SDS011;6214;48.012;7.862;2023-02-28T15:11:04;20.02;;;8.45;;
12302;SDS011;6214;48.012;7.862;2023-02-28T15:13:45;19.77;;;8.98;;
12302;SDS011;6214;48.012;7.862;2023-02-28T15:16:16;19.85;;;8.50;;
12302;SDS011;6214;48.012;7.862;2023-02-28T15:21:17;20.83;;;8.98;;
12302;SDS011;6214;48.012;7.862;2023-02-28T15:26:39;20.40;;;8.50;;
12302;SDS011;6214;48.012;7.862;2023-02-28T15:29:13;20.48;;;9.13;;
12302;SDS011;6214;48.012;7.862;2023-02-28T15:31:51;20.20;;;8.88;;
12302;SDS011;6214;48.012;7.862;2023-02-28T15:43:07;21.40;;;9.33;;
12302;SDS011;6214;48.012;7.862;2023-02-28T15:48:23;21.08;;;9.15;;
12302;SDS011;6214;48.012;7.862;2023-02-28T15:53:37;20.85;;;9.20;;
12302;SDS011;6214;48.012;7.862;2023-02-28T15:58:57;20.10;;;9.05;;
12302;SDS011;6214;48.012;7.862;2023-02-28T16:01:28;20.90;;;9.60;;
12302;SDS011;6214;48.012;7.862;2023-02-28T16:03:57;20.38;;;9.35;;
12302;SDS011;6214;48.012;7.862;2023-02-28T16:06:33;20.17;;;9.60;;
12302;SDS011;6214;48.012;7.862;2023-02-28T16:09:14;20.83;;;9.35;;
12302;SDS011;6214;48.012;7.862;2023-02-28T16:11:49;20.80;;;10.50;;
12302;SDS011;6214;48.012;7.862;2023-02-28T16:14:20;21.40;;;9.47;;
12302;SDS011;6214;48.012;7.862;2023-02-28T16:16:54;20.40;;;9.38;;
12302;SDS011;6214;48.012;7.862;2023-02-28T16:19:22;20.45;;;8.90;;
12302;SDS011;6214;48.012;7.862;2023-02-28T16:21:50;20.30;;;8.70;;
12302;SDS011;6214;48.012;7.862;2023-02-28T16:24:17;23.80;;;12.85;;
12302;SDS011;6214;48.012;7.862;2023-02-28T16:26:48;21.25;;;10.20;;
12302;SDS011;6214;48.012;7.862;2023-02-28T16:29:24;21.20;;;9.38;;
12302;SDS011;6214;48.012;7.862;2023-02-28T16:31:56;20.80;;;9.23;;
12302;SDS011;6214;48.012;7.862;2023-02-28T16:34:23;20.23;;;8.90;;
12302;SDS011;6214;48.012;7.862;2023-02-28T16:36:51;21.25;;;9.05;;
12302;SDS011;6214;48.012;7.862;2023-02-28T16:39:18;19.57;;;8.50;;
12302;SDS011;6214;48.012;7.862;2023-02-28T16:41:48;20.05;;;7.80;;
12302;SDS011;6214;48.012;7.862;2023-02-28T16:44:37;21.25;;;9.27;;
12302;SDS011;6214;48.012;7.862;2023-02-28T16:47:04;20.93;;;9.30;;
12302;SDS011;6214;48.012;7.862;2023-02-28T16:49:31;20.70;;;9.50;;
12302;SDS011;6214;48.012;7.862;2023-02-28T16:51:58;23.70;;;11.98;;
12302;SDS011;6214;48.012;7.862;2023-02-28T16:54:25;20.95;;;9.32;;
12302;SDS011;6214;48.012;7.862;2023-02-28T16:56:52;20.42;;;9.60;;
12302;SDS011;6214;48.012;7.862;2023-02-28T16:59:22;21.23;;;9.40;;
12302;SDS011;6214;48.012;7.862;2023-02-28T17:01:50;22.08;;;10.30;;
12302;SDS011;6214;48.012;7.862;2023-02-28T17:04:18;21.77;;;10.00;;
12302;SDS011;6214;48.012;7.862;2023-02-28T17:06:45;20.63;;;9.40;;
12302;SDS011;6214;48.012;7.862;2023-02-28T17:09:20;21.38;;;9.82;;
12302;SDS011;6214;48.012;7.862;2023-02-28T17:11:56;22.35;;;10.40;;
12302;SDS011;6214;48.012;7.862;2023-02-28T17:14:23;22.02;;;9.52;;
12302;SDS011;6214;48.012;7.862;2023-02-28T17:16:50;20.95;;;10.45;;
12302;SDS011;6214;48.012;7.862;2023-02-28T17:19:17;22.02;;;10.07;;
12302;SDS011;6214;48.012;7.862;2023-02-28T17:21:44;20.60;;;9.25;;
12302;SDS011;6214;48.012;7.862;2023-02-28T17:24:11;21.83;;;9.30;;
12302;SDS011;6214;48.012;7.862;2023-02-28T17:26:44;21.55;;;9.10;;
12302;SDS011;6214;48.012;7.862;2023-02-28T17:29:21;20.30;;;8.23;;
12302;SDS011;6214;48.012;7.862;2023-02-28T17:31:48;20.73;;;8.70;;
12302;SDS011;6214;48.012;7.862;2023-02-28T17:34:15;19.67;;;8.40;;
12302;SDS011;6214;48.012;7.862;2023-02-28T17:36:45;21.20;;;9.00;;
12302;SDS011;6214;48.012;7.862;2023-02-28T17:39:13;19.80;;;8.60;;
12302;SDS011;6214;48.012;7.862;2023-02-28T17:41:41;19.65;;;8.32;;
12302;SDS011;6214;48.012;7.862;2023-02-28T17:44:08;19.90;;;8.73;;
12302;SDS011;6214;48.012;7.862;2023-02-28T17:46:35;20.08;;;8.40;;
12302;SDS011;6214;48.012;7.862;2023-02-28T17:49:03;20.75;;;8.90;;
12302;SDS011;6214;48.012;7.862;2023-02-28T17:51:30;20.90;;;8.65;;
12302;SDS011;6214;48.012;7.862;2023-02-28T17:53:57;20.17;;;8.80;;
12302;SDS011;6214;48.012;7.862;2023-02-28T17:56:24;21.00;;;9.10;;
12302;SDS011;6214;48.012;7.862;2023-02-28T17:58:53;23.98;;;11.45;;
12302;SDS011;6214;48.012;7.862;2023-02-28T18:01:22;23.30;;;10.80;;